Time;durP1;ratioP1;P1;durP2;ratioP2;P2;SDS_P1;SDS_P2;PMS_P1;PMS_P2;Temp;Humidity;BMP_temperature;BMP_pressure;BME280_temperature;BME280_humidity;BME280_pressure;Samples;Min_cycle;Max_cycle;Signal;HPM_P1;HPM_P2
2024/01/15 00:00:14;;;;;;;38.55;19.15;;;;;;;0.78;55.66;98581.19;7762711;32;39748;-87
2024/01/15 00:04:31;;;;;;;39.45;18.50;;;;;;;1.10;54.18;98555.53;7762484;32;38658;-86
2024/01/15 00:08:47;;;;;;;35.67;19.35;;;;;;;0.85;55.76;98571.16;7763825;32;38236;-87
2024/01/15 00:13:03;;;;;;;36.55;18.70;;;;;;;1.10;54.81;98546.66;7765265;32;40013;-87
2024/01/15 00:17:20;;;;;;;33.92;18.27;;;;;;;0.63;55.71;98542.28;7766657;32;39894;-87
2024/01/15 00:21:36;;;;;;;38.85;19.27;;;;;;;0.66;55.46;98528.41;7766375;32;37753;-87
2024/01/15 00:25:52;;;;;;;38.55;19.60;;;;;;;0.58;56.25;98518.03;7766189;32;38052;-87
2024/01/15 00:30:09;;;;;;;34.20;18.83;;;;;;;0.39;56.83;98527.28;7766384;32;39358;-87
2024/01/15 00:34:25;;;;;;;40.17;20.60;;;;;;;0.69;55.73;98513.69;7768050;32;41024;-88
2024/01/15 00:38:42;;;;;;;38.92;21.05;;;;;;;0.53;56.22;98525.97;7793016;32;37834;-88
2024/01/15 00:42:58;;;;;;;40.00;21.40;;;;;;;0.61;56.03;98506.03;7793315;32;37013;-88
2024/01/15 00:47:14;;;;;;;36.53;20.52;;;;;;;0.60;56.01;98493.66;7793153;32;39561;-88
2024/01/15 00:51:30;;;;;;;34.38;19.30;;;;;;;0.62;55.84;98499.59;7793119;32;39906;-88
2024/01/15 00:55:47;;;;;;;45.83;22.30;;;;;;;0.72;56.05;98495.22;7792952;32;37853;-87
2024/01/15 01:00:04;;;;;;;44.38;21.05;;;;;;;0.65;56.67;98494.56;7793293;32;37986;-92
2024/01/15 01:04:21;;;;;;;48.17;22.48;;;;;;;0.83;56.14;98482.84;7793144;32;39908;-88
2024/01/15 01:08:38;;;;;;;43.80;23.52;;;;;;;0.69;56.42;98478.81;7792923;32;40763;-87
2024/01/15 01:12:54;;;;;;;39.30;21.73;;;;;;;0.79;55.88;98478.19;7791689;32;38733;-88
2024/01/15 01:17:10;;;;;;;40.45;20.12;;;;;;;0.75;56.00;98470.63;7792888;32;37163;-88
2024/01/15 01:21:27;;;;;;;38.42;20.33;;;;;;;0.49;57.29;98457.78;7792028;32;40138;-87
2024/01/15 01:25:43;;;;;;;39.35;20.73;;;;;;;0.97;55.94;98445.78;7792541;32;39951;-87
2024/01/15 01:29:59;;;;;;;41.53;20.80;;;;;;;1.08;55.56;98428.78;7799418;32;38796;-87
2024/01/15 01:34:16;;;;;;;35.22;19.48;;;;;;;0.93;55.96;98420.47;7819943;32;37374;-87
2024/01/15 01:38:32;;;;;;;42.33;19.98;;;;;;;0.84;56.15;98413.88;7819998;32;39309;-87
2024/01/15 01:42:49;;;;;;;39.80;21.65;;;;;;;0.92;56.27;98421.53;7819856;32;40072;-87
2024/01/15 01:47:05;;;;;;;38.65;20.52;;;;;;;0.84;56.12;98412.00;7819770;32;38656;-87
2024/01/15 01:51:24;;;;;;;40.70;20.62;;;;;;;0.69;56.55;98420.63;7819771;32;37916;-87
2024/01/15 01:55:43;;;;;;;36.33;19.48;;;;;;;1.02;56.03;98410.16;7806070;32;39172;-87
2024/01/15 02:00:00;;;;;;;36.40;18.62;;;;;;;1.00;56.03;98412.28;7805864;32;39975;-87
2024/01/15 02:04:17;;;;;;;40.40;19.50;;;;;;;0.90;56.63;98400.31;7819577;32;37666;-87
2024/01/15 02:08:37;;;;;;;37.13;19.15;;;;;;;0.92;56.80;98386.66;7819579;32;37980;-87
2024/01/15 02:12:54;;;;;;;36.70;20.60;;;;;;;1.08;56.43;98380.47;7819401;32;39965;-87
2024/01/15 02:17:10;;;;;;;40.63;20.83;;;;;;;1.05;56.51;98372.94;7819474;32;40608;-87
2024/01/15 02:21:28;;;;;;;42.42;21.10;;;;;;;0.99;56.51;98363.16;7819316;32;38281;-87
2024/01/15 02:25:46;;;;;;;45.95;21.87;;;;;;;0.72;57.28;98353.06;7816437;32;37305;-87
2024/01/15 02:30:03;;;;;;;39.90;22.20;;;;;;;0.96;56.80;98338.69;7819322;32;39330;-87
2024/01/15 02:34:19;;;;;;;47.22;22.10;;;;;;;0.25;58.82;98366.72;7818968;32;39887;-87
2024/01/15 02:38:36;;;;;;;38.58;21.73;;;;;;;0.36;58.70;98373.91;7819110;32;38415;-87
2024/01/15 02:42:52;;;;;;;51.53;24.58;;;;;;;0.68;57.81;98373.38;7818791;32;36967;-87
2024/01/15 02:47:08;;;;;;;42.47;23.00;;;;;;;0.71;57.99;98370.22;7819047;32;39248;-87
2024/01/15 02:51:24;;;;;;;46.60;22.40;;;;;;;0.42;59.25;98366.75;7816485;32;40284;-87
2024/01/15 02:55:40;;;;;;;44.75;21.50;;;;;;;0.93;57.79;98342.66;7815880;32;37819;-87
2024/01/15 02:59:57;;;;;;;43.63;22.40;;;;;;;0.80;57.88;98340.31;7818746;32;37365;-87
2024/01/15 03:04:13;;;;;;;45.75;22.10;;;;;;;0.89;57.52;98336.16;7818544;32;39490;-87
2024/01/15 03:08:29;;;;;;;41.58;21.10;;;;;;;0.91;57.63;98359.03;7818485;32;40046;-87
2024/01/15 03:12:45;;;;;;;45.33;22.87;;;;;;;0.92;57.81;98359.81;7818300;32;38656;-87
2024/01/15 03:17:02;;;;;;;42.62;22.08;;;;;;;1.10;57.28;98362.28;7818439;32;37324;-87
2024/01/15 03:21:18;;;;;;;43.08;22.00;;;;;;;0.93;57.62;98369.50;7818254;32;39836;-87
2024/01/15 03:25:34;;;;;;;44.13;22.67;;;;;;;1.04;57.68;98349.00;7774645;32;39771;-87
2024/01/15 03:29:50;;;;;;;46.17;23.85;;;;;;;0.35;59.46;98368.78;7763495;32;38431;-87
2024/01/15 03:34:06;;;;;;;41.78;23.52;;;;;;;0.79;58.53;98352.09;7763371;32;37350;-88
2024/01/15 03:38:24;;;;;;;45.03;23.92;;;;;;;0.84;58.36;98334.19;7763239;32;39218;-87
2024/01/15 03:42:40;;;;;;;45.03;21.85;;;;;;;0.75;58.30;98330.31;7763384;32;40598;-87
2024/01/15 03:46:57;;;;;;;42.30;23.30;;;;;;;0.82;57.89;98324.78;7776952;32;37704;-87
2024/01/15 03:51:15;;;;;;;44.10;22.25;;;;;;;0.90;57.40;98332.44;7821182;32;37165;-87
2024/01/15 03:55:32;;;;;;;43.65;22.77;;;;;;;0.90;57.07;98324.37;7807439;32;39109;-87
2024/01/15 03:59:48;;;;;;;45.90;23.87;;;;;;;0.87;56.63;98311.44;7821087;32;39763;-87
2024/01/15 04:04:04;;;;;;;49.28;24.00;;;;;;;0.92;56.31;98319.56;7821040;32;37651;-87
2024/01/15 04:08:20;;;;;;;41.13;21.77;;;;;;;0.81;55.92;98307.03;7821087;32;37388;-87
2024/01/15 04:12:37;;;;;;;51.50;25.73;;;;;;;0.51;56.38;98300.94;7788282;32;39222;-88
2024/01/15 04:16:53;;;;;;;55.70;24.52;;;;;;;0.66;55.95;98313.81;7766412;32;40013;-87
2024/01/15 04:21:09;;;;;;;50.22;25.52;;;;;;;0.40;56.41;98306.38;7766126;32;37962;-87
2024/01/15 04:25:25;;;;;;;52.67;24.50;;;;;;;0.52;56.00;98299.09;7766174;32;38141;-86
2024/01/15 04:29:42;;;;;;;50.88;26.80;;;;;;;0.59;55.68;98296.22;7766290;32;39266;-87
2024/01/15 04:33:58;;;;;;;46.45;24.98;;;;;;;0.44;55.70;98297.59;7766113;32;40544;-87
2024/01/15 04:38:14;;;;;;;46.22;23.48;;;;;;;0.43;55.99;98305.88;7766192;32;37848;-87
2024/01/15 04:42:31;;;;;;;47.13;24.65;;;;;;;0.36;56.30;98298.00;7796147;32;37986;-87
2024/01/15 04:46:47;;;;;;;49.10;24.67;;;;;;;0.22;56.93;98294.81;7820623;32;39555;-87
2024/01/15 04:51:08;;;;;;;46.78;23.73;;;;;;;0.43;56.06;98279.91;7820391;32;40119;-86
2024/01/15 04:55:25;;;;;;;57.78;23.58;;;;;;;0.26;56.34;98305.84;7806381;32;37940;-87
2024/01/15 04:59:41;;;;;;;50.15;23.48;;;;;;;0.15;57.50;98310.22;7820436;32;38033;-87
2024/01/15 05:03:57;;;;;;;42.78;24.30;;;;;;;0.32;56.81;98316.44;7820297;32;39345;-87
2024/01/15 05:08:15;;;;;;;45.20;22.90;;;;;;;0.23;57.26;98314.41;7820233;32;39991;-87
2024/01/15 05:12:31;;;;;;;46.50;24.87;;;;;;;-0.06;58.30;98323.25;7785122;32;38805;-86
2024/01/15 05:16:51;;;;;;;46.80;26.08;;;;;;;0.12;57.41;98316.91;7765665;32;37204;-86
2024/01/15 05:21:07;;;;;;;60.47;29.45;;;;;;;0.04;57.48;98314.59;7765720;32;39348;-87
2024/01/15 05:25:23;;;;;;;61.17;29.98;;;;;;;-0.03;57.65;98309.37;7765409;32;39881;-88
2024/01/15 05:29:39;;;;;;;56.83;26.98;;;;;;;-0.23;57.98;98308.97;7765501;32;37830;-88
2024/01/15 05:33:55;;;;;;;52.30;25.00;;;;;;;-0.07;57.67;98292.16;7765434;32;38019;-88
2024/01/15 05:38:12;;;;;;;52.80;25.83;;;;;;;-0.25;57.77;98295.00;7813392;32;39863;-87
2024/01/15 05:42:30;;;;;;;48.63;24.42;;;;;;;-0.06;57.59;98291.09;7819425;32;40811;-87
2024/01/15 05:46:46;;;;;;;52.67;25.05;;;;;;;-0.15;58.13;98287.19;7811168;32;38652;-87
2024/01/15 05:51:02;;;;;;;51.63;24.87;;;;;;;-0.22;59.43;98281.16;7764114;32;38172;-87
2024/01/15 05:55:19;;;;;;;52.42;25.50;;;;;;;0.04;58.05;98271.72;7765401;32;39965;-86
2024/01/15 05:59:36;;;;;;;44.15;23.55;;;;;;;-0.13;58.96;98274.34;7765185;32;39644;-87
2024/01/15 06:03:53;;;;;;;46.90;24.35;;;;;;;-0.26;59.20;98271.94;7765116;32;37621;-87
2024/01/15 06:08:09;;;;;;;44.97;24.23;;;;;;;-0.16;59.08;98265.97;7764436;32;37380;-87
2024/01/15 06:12:27;;;;;;;51.50;23.87;;;;;;;-0.14;59.35;98256.66;7794606;32;39993;-87
2024/01/15 06:16:44;;;;;;;50.35;25.05;;;;;;;-0.02;59.41;98261.94;7819821;32;40429;-87
2024/01/15 06:21:00;;;;;;;51.08;23.87;;;;;;;-0.54;60.48;98259.34;7819318;32;37685;-87
2024/01/15 06:25:16;;;;;;;50.90;22.42;;;;;;;-0.02;58.99;98254.75;7819200;32;36983;-88
2024/01/15 06:29:32;;;;;;;50.12;24.23;;;;;;;-0.51;59.92;98269.59;7805303;32;40002;-89
2024/01/15 06:33:48;;;;;;;51.45;23.73;;;;;;;-0.50;60.34;98268.53;7764651;32;39819;-87
2024/01/15 06:38:05;;;;;;;52.03;26.80;;;;;;;-0.28;60.03;98260.66;7764575;32;37952;-87
2024/01/15 06:42:21;;;;;;;51.45;25.25;;;;;;;-0.24;59.26;98265.31;7764581;32;37961;-87
2024/01/15 06:46:43;;;;;;;50.67;25.27;;;;;;;-0.28;59.25;98271.37;7764650;32;39882;-87
2024/01/15 06:50:59;;;;;;;49.45;23.85;;;;;;;-0.25;59.63;98279.75;7764414;32;41011;-86
2024/01/15 06:55:15;;;;;;;43.72;22.98;;;;;;;-0.22;59.26;98305.25;7764209;32;37971;-86
2024/01/15 06:59:31;;;;;;;60.58;27.45;;;;;;;-0.29;58.96;98307.28;7764272;32;37239;-87
2024/01/15 07:03:47;;;;;;;49.38;24.80;;;;;;;-0.35;58.92;98300.16;7764351;32;39470;-86
2024/01/15 07:08:04;;;;;;;50.63;23.90;;;;;;;-0.59;60.91;98310.91;7764081;32;40700;-89
2024/01/15 07:12:20;;;;;;;53.05;24.73;;;;;;;-0.30;60.48;98300.28;7763777;32;38621;-88
2024/01/15 07:16:36;;;;;;;47.30;24.12;;;;;;;-0.27;60.77;98299.81;7763884;32;38172;-90
2024/01/15 07:20:54;;;;;;;47.10;22.85;;;;;;;-0.31;60.52;98304.00;7766571;32;39747;-90
2024/01/15 07:25:10;;;;;;;48.35;24.40;;;;;;;-0.15;60.16;98322.00;7799238;32;39709;-90
2024/01/15 07:29:26;;;;;;;47.45;23.65;;;;;;;0.03;60.40;98333.59;7821489;32;38058;-91
2024/01/15 07:33:42;;;;;;;40.72;23.02;;;;;;;-0.09;60.92;98347.03;7821456;32;37989;-85
2024/01/15 07:37:59;;;;;;;40.58;23.52;;;;;;;-0.17;60.60;98345.53;7815804;32;39352;-86
2024/01/15 07:42:15;;;;;;;49.63;24.42;;;;;;;0.07;61.65;98357.00;7801973;32;39650;-86
2024/01/15 07:46:31;;;;;;;46.03;21.70;;;;;;;0.30;61.21;98366.81;7821284;32;38031;-86
2024/01/15 07:50:48;;;;;;;37.97;21.90;;;;;;;0.51;60.62;98372.53;7820919;32;36852;-85
2024/01/15 07:55:05;;;;;;;43.13;22.67;;;;;;;0.46;59.91;98364.41;7805748;32;39108;-86
2024/01/15 07:59:21;;;;;;;44.25;23.33;;;;;;;0.90;58.72;98365.44;7787392;32;40266;-86
2024/01/15 08:03:37;;;;;;;39.35;22.00;;;;;;;1.17;57.73;98364.75;7766429;32;38493;-86
2024/01/15 08:07:54;;;;;;;42.50;23.15;;;;;;;1.22;57.46;98372.91;7789269;32;37881;-83
2024/01/15 08:12:14;;;;;;;51.95;24.73;;;;;;;1.38;61.28;98381.19;7793980;32;39264;-88
2024/01/15 08:16:30;;;;;;;28.45;16.25;;;;;;;1.26;58.77;98374.06;7792442;32;39746;-88
2024/01/15 08:20:46;;;;;;;33.70;16.17;;;;;;;0.59;57.83;98364.13;7788544;32;38435;-87
2024/01/15 08:25:03;;;;;;;27.90;15.48;;;;;;;1.36;56.06;98357.25;7788798;32;37122;-87
2024/01/15 08:29:20;;;;;;;24.23;15.13;;;;;;;0.94;55.99;98357.72;7784270;32;40066;-87
2024/01/15 08:33:37;;;;;;;30.80;15.50;;;;;;;1.50;54.79;98347.81;7775976;32;40766;-88
2024/01/15 08:37:53;;;;;;;34.50;15.20;;;;;;;1.99;53.85;98365.06;7787463;32;38605;-87
2024/01/15 08:42:10;;;;;;;27.60;13.75;;;;;;;1.94;52.60;98351.56;7793878;32;38093;-87
2024/01/15 08:46:27;;;;;;;33.53;14.15;;;;;;;2.29;50.59;98353.03;7793113;32;39317;-88
2024/01/15 08:50:45;;;;;;;24.90;12.02;;;;;;;2.56;50.34;98364.63;7793116;32;40109;-87
2024/01/15 08:55:01;;;;;;;27.13;14.98;;;;;;;2.53;48.82;98361.63;7792927;32;37851;-86
2024/01/15 08:59:24;;;;;;;27.98;14.52;;;;;;;2.46;50.15;98361.81;7793085;32;37694;-87
2024/01/15 09:03:42;;;;;;;22.57;13.13;;;;;;;2.92;49.04;98356.88;7793092;32;40036;-86
2024/01/15 09:07:59;;;;;;;25.42;14.00;;;;;;;2.91;49.78;98365.19;7792929;32;38882;-87
2024/01/15 09:12:15;;;;;;;22.98;12.73;;;;;;;3.00;48.72;98359.09;7792172;32;37977;-86
2024/01/15 09:16:31;;;;;;;27.23;12.35;;;;;;;3.69;49.09;98337.69;7779023;32;38016;-86
2024/01/15 09:20:48;;;;;;;29.02;12.60;;;;;;;3.60;48.14;98345.47;7785920;32;40500;-87
2024/01/15 09:25:04;;;;;;;24.60;11.88;;;;;;;3.27;48.65;98336.66;7776388;32;40832;-89
2024/01/15 09:29:20;;;;;;;23.77;11.80;;;;;;;3.08;49.14;98338.13;7786034;32;37917;-87
2024/01/15 09:33:36;;;;;;;21.60;12.05;;;;;;;3.63;47.55;98323.38;7772441;32;37257;-86
2024/01/15 09:37:53;;;;;;;21.55;11.57;;;;;;;3.69;48.36;98311.56;7781788;32;39486;-86
2024/01/15 09:42:10;;;;;;;20.48;10.73;;;;;;;3.90;46.64;98322.44;7780801;32;40063;-73
2024/01/15 09:46:27;;;;;;;18.80;10.15;;;;;;;4.95;45.57;98299.66;7790658;32;37829;-87
2024/01/15 09:50:43;;;;;;;20.23;10.52;;;;;;;5.60;43.11;98304.38;7792192;32;37157;-88
2024/01/15 09:55:01;;;;;;;24.80;10.00;;;;;;;4.89;43.96;98289.94;7789491;32;40061;-88
2024/01/15 09:59:20;;;;;;;18.12;9.77;;;;;;;5.83;43.32;98274.00;7767462;32;39392;-88
2024/01/15 10:03:37;;;;;;;20.23;9.52;;;;;;;6.23;41.75;98260.56;7766715;32;37709;-88
2024/01/15 10:07:56;;;;;;;15.60;8.43;;;;;;;6.01;41.60;98250.94;7764589;32;38233;-88
2024/01/15 10:12:12;;;;;;;14.45;8.05;;;;;;;5.82;42.05;98255.34;7764850;32;39561;-87
2024/01/15 10:16:29;;;;;;;14.20;7.75;;;;;;;5.96;42.27;98242.06;7764526;32;39846;-88
2024/01/15 10:20:45;;;;;;;11.65;6.35;;;;;;;6.31;39.98;98254.56;7780647;32;37906;-88
2024/01/15 10:25:02;;;;;;;11.48;6.18;;;;;;;6.50;39.48;98234.91;7772244;32;149214;-89
2024/01/15 10:29:19;;;;;;;13.00;7.35;;;;;;;6.49;39.49;98230.59;7786074;32;40331;-88
2024/01/15 10:33:35;;;;;;;11.85;6.45;;;;;;;6.43;39.65;98232.53;7760787;32;40846;-88
2024/01/15 10:37:52;;;;;;;14.20;6.18;;;;;;;6.70;39.35;98218.50;7762281;32;37349;-88
2024/01/15 10:42:08;;;;;;;12.52;6.12;;;;;;;7.29;37.80;98213.81;7754451;32;36878;-85
2024/01/15 10:46:25;;;;;;;10.45;5.37;;;;;;;7.62;36.78;98208.59;7790346;32;39870;-86
2024/01/15 10:50:41;;;;;;;10.80;6.00;;;;;;;8.08;36.65;98215.28;7776961;32;39818;-85
2024/01/15 10:54:59;;;;;;;11.65;6.10;;;;;;;7.57;36.63;98213.25;7755880;32;38560;-85
2024/01/15 10:59:24;;;;;;;;;;;;;;;8.29;35.83;98218.47;7783517;32;37132;-86
2024/01/15 11:03:42;;;;;;;11.12;5.80;;;;;;;8.21;35.97;98195.53;7790866;32;39620;-85
2024/01/15 11:08:02;;;;;;;11.80;5.70;;;;;;;8.71;34.98;98186.87;7815636;32;40747;-85
2024/01/15 11:12:19;;;;;;;12.35;5.93;;;;;;;7.80;35.98;98206.19;7791816;32;37584;-85
2024/01/15 11:16:56;;;;;;;12.95;5.87;;;;;;;7.49;36.43;98218.22;7817367;32;37105;-86
2024/01/15 11:21:18;;;;;;;12.18;6.70;;;;;;;6.44;38.72;98222.53;7763570;32;40026;-86
2024/01/15 11:25:38;;;;;;;12.15;6.05;;;;;;;6.50;38.24;98219.50;7785696;32;40755;-85
2024/01/15 11:30:06;;;;;;;10.38;5.85;;;;;;;6.37;39.04;98212.81;7776132;32;38508;-86
2024/01/15 11:34:43;;;;;;;14.25;6.18;;;;;;;6.76;37.95;98194.87;7786629;32;38092;-85
2024/01/15 11:38:59;;;;;;;13.23;6.60;;;;;;;5.64;38.93;98219.75;7777526;32;39316;-86
2024/01/15 11:43:20;;;;;;;13.95;6.82;;;;;;;5.57;40.39;98226.53;7780079;32;39970;-85
2024/01/15 11:48:13;;;;;;;19.98;9.15;;;;;;;5.68;40.07;98230.00;7789733;32;37625;-85
2024/01/15 11:52:35;;;;;;;12.23;6.80;;;;;;;5.68;40.01;98214.59;7791945;32;37213;-85
2024/01/15 11:56:52;;;;;;;13.95;6.80;;;;;;;6.17;40.00;98188.63;7785882;32;38862;-85
2024/01/15 12:01:10;;;;;;;17.62;7.18;;;;;;;6.29;38.94;98196.38;7769578;32;39991;-86
2024/01/15 12:05:26;;;;;;;12.27;7.15;;;;;;;6.36;39.13;98192.28;7765126;32;38368;-86
2024/01/15 12:09:44;;;;;;;14.48;6.78;;;;;;;6.43;39.11;98185.72;7767224;32;37059;-85
2024/01/15 12:14:00;;;;;;;11.77;6.18;;;;;;;6.94;38.29;98179.81;7791005;32;40158;-81
2024/01/15 12:18:19;;;;;;;11.80;6.40;;;;;;;6.87;37.73;98179.34;7793611;32;41015;-81
2024/01/15 12:22:36;;;;;;;13.77;7.32;;;;;;;6.68;38.82;98171.16;7779734;32;37735;-81
2024/01/15 12:27:12;;;;;;;11.40;5.90;;;;;;;7.31;37.21;98175.59;7793834;32;37106;-81
2024/01/15 12:31:29;;;;;;;13.18;5.87;;;;;;;8.27;36.49;98160.97;7793569;32;39171;-77
2024/01/15 12:35:45;;;;;;;11.55;5.95;;;;;;;8.62;41.28;98134.31;7793637;32;39988;-80
2024/01/15 12:40:02;;;;;;;13.52;6.80;;;;;;;8.29;35.29;98137.03;7765789;32;37916;-80
2024/01/15 12:44:19;;;;;;;13.73;6.15;;;;;;;8.11;35.47;98125.13;7766333;32;37243;-80
2024/01/15 12:48:35;;;;;;;15.40;6.15;;;;;;;8.57;34.58;98102.66;7766653;32;37465;-80
2024/01/15 12:52:51;;;;;;;10.15;5.30;;;;;;;8.39;35.08;98104.28;7766056;32;39965;-80
2024/01/15 12:57:07;;;;;;;13.23;6.15;;;;;;;8.34;35.40;98095.41;7765872;32;37721;-80
2024/01/15 13:01:24;;;;;;;10.52;5.18;;;;;;;9.07;34.50;98090.25;7771960;32;37372;-80
2024/01/15 13:05:41;;;;;;;11.32;5.57;;;;;;;9.26;33.55;98085.53;7810845;32;39898;-80
2024/01/15 13:09:57;;;;;;;11.93;6.18;;;;;;;9.94;33.12;98091.06;7764694;32;40278;-80
2024/01/15 13:14:13;;;;;;;10.75;5.37;;;;;;;10.14;31.73;98090.56;7764572;32;37815;-80
2024/01/15 13:18:30;;;;;;;15.57;5.87;;;;;;;9.36;32.66;98098.88;7764918;32;37009;-79
2024/01/15 13:22:47;;;;;;;10.50;5.60;;;;;;;9.59;32.62;98099.75;7765695;32;39451;-80
2024/01/15 13:27:04;;;;;;;11.32;5.55;;;;;;;10.47;31.70;98094.97;7765753;32;40748;-80
2024/01/15 13:31:20;;;;;;;12.18;6.12;;;;;;;10.94;31.17;98102.72;7765650;32;38018;-80
2024/01/15 13:35:37;;;;;;;10.00;5.18;;;;;;;11.03;31.04;98089.91;7764387;32;37926;-80
2024/01/15 13:39:53;;;;;;;10.23;5.18;;;;;;;10.99;30.76;98091.66;7765655;32;40034;-80
2024/01/15 13:44:10;;;;;;;10.18;5.12;;;;;;;10.69;30.86;98102.28;7765563;32;40832;-80
2024/01/15 13:48:26;;;;;;;8.68;4.57;;;;;;;10.88;30.96;98102.84;7765398;32;38618;-80
2024/01/15 13:52:43;;;;;;;9.43;4.60;;;;;;;11.11;30.23;98116.41;7765492;32;37028;-80
2024/01/15 13:56:59;;;;;;;9.27;4.45;;;;;;;11.81;28.88;98116.50;7765328;32;39337;-80
2024/01/15 14:01:17;;;;;;;10.35;4.95;;;;;;;12.20;27.86;98129.22;7765316;32;39995;-80
2024/01/15 14:05:33;;;;;;;9.70;5.22;;;;;;;14.69;25.32;98111.53;7765307;32;36896;-80
2024/01/15 14:09:50;;;;;;;14.50;5.68;;;;;;;15.90;22.73;98116.53;7765181;32;37216;-80
2024/01/15 14:14:08;;;;;;;9.98;5.32;;;;;;;15.20;23.43;98106.56;7765258;32;39096;-80
2024/01/15 14:18:24;;;;;;;11.43;5.47;;;;;;;15.19;23.75;98104.94;7765119;32;38984;-80
2024/01/15 14:22:41;;;;;;;12.55;5.37;;;;;;;13.64;25.96;98099.56;7764818;32;36758;-80
2024/01/15 14:26:58;;;;;;;14.30;5.50;;;;;;;13.19;26.57;98091.12;7764316;32;37499;-81
2024/01/15 14:31:14;;;;;;;19.40;4.97;;;;;;;14.35;25.72;98097.84;7764951;32;39297;-80
2024/01/15 14:35:31;;;;;;;9.60;4.40;;;;;;;13.85;26.47;98096.03;7764763;32;40826;-81
2024/01/15 14:39:47;;;;;;;10.35;4.72;;;;;;;12.85;26.99;98106.56;7764759;32;37871;-79
2024/01/15 14:44:03;;;;;;;8.77;4.80;;;;;;;11.78;28.48;98108.97;7764325;32;37211;-80
2024/01/15 14:48:20;;;;;;;9.43;4.95;;;;;;;10.60;30.58;98128.69;7764643;32;40877;-80
2024/01/15 14:52:36;;;;;;;11.30;5.12;;;;;;;8.23;34.84;98143.66;7775690;32;40653;-80
2024/01/15 14:56:52;;;;;;;9.45;4.70;;;;;;;6.72;37.94;98135.06;7774851;32;38561;-81
2024/01/15 15:01:09;;;;;;;8.35;4.87;;;;;;;5.65;39.79;98148.34;7777390;32;36978;-80
2024/01/15 15:05:26;;;;;;;11.20;6.25;;;;;;;5.97;39.74;98140.87;7779709;32;40014;-80
2024/01/15 15:09:42;;;;;;;8.85;5.25;;;;;;;5.88;39.49;98167.69;7777653;32;40598;-80
2024/01/15 15:14:00;;;;;;;15.00;6.50;;;;;;;5.67;39.26;98168.91;7775753;32;37782;-80
2024/01/15 15:18:16;;;;;;;11.45;5.78;;;;;;;5.35;40.12;98167.44;7777488;32;36039;-80
2024/01/15 15:22:33;;;;;;;14.52;5.75;;;;;;;5.23;40.13;98170.47;7774098;32;40840;-80
2024/01/15 15:26:50;;;;;;;10.73;5.70;;;;;;;5.17;40.07;98172.34;7775856;32;40075;-80
2024/01/15 15:31:14;;;;;;;10.40;5.62;;;;;;;4.21;42.07;98176.84;7776131;32;36251;-79
2024/01/15 15:35:33;;;;;;;14.18;6.70;;;;;;;4.21;42.22;98180.37;7776726;32;37179;-80
2024/01/15 15:39:49;;;;;;;9.15;5.75;;;;;;;4.45;41.55;98171.72;7776033;32;39265;-80
2024/01/15 15:44:05;;;;;;;10.20;6.18;;;;;;;4.04;42.54;98160.94;7779127;32;39977;-80
2024/01/15 15:48:22;;;;;;;11.85;5.62;;;;;;;4.35;42.38;98166.31;7779311;32;37809;-80
2024/01/15 15:52:38;;;;;;;16.40;7.37;;;;;;;3.93;44.53;98177.13;7779802;32;37902;-80
2024/01/15 15:56:54;;;;;;;11.55;6.43;;;;;;;3.50;46.13;98199.91;7778726;32;39812;-80
2024/01/15 16:01:13;;;;;;;11.68;6.22;;;;;;;3.97;45.40;98195.44;7778461;32;38941;-80
2024/01/15 16:05:29;;;;;;;14.87;6.47;;;;;;;3.62;46.11;98192.38;7780027;32;36701;-80
2024/01/15 16:10:00;;;;;;;13.05;7.28;;;;;;;3.79;45.99;98185.97;7778720;32;37698;-80
2024/01/15 16:14:17;;;;;;;16.23;8.38;;;;;;;3.57;45.79;98174.34;7778492;32;39157;-80
2024/01/15 16:18:34;;;;;;;9.45;5.35;;;;;;;3.72;44.77;98197.81;7779821;32;39860;-80
2024/01/15 16:23:10;;;;;;;10.02;5.97;;;;;;;3.54;44.95;98217.97;7777151;32;39473;-79
2024/01/15 16:27:46;;;;;;;10.32;5.97;;;;;;;3.36;45.69;98227.34;7787826;32;38087;-81
2024/01/15 16:32:03;;;;;;;10.57;6.97;;;;;;;3.10;45.71;98222.91;7792298;32;40054;-81
2024/01/15 16:36:20;;;;;;;14.77;6.93;;;;;;;2.37;47.46;98220.81;7767239;32;39877;-81
2024/01/15 16:40:37;;;;;;;12.82;6.60;;;;;;;2.52;48.23;98229.00;7765596;32;38559;-81
2024/01/15 16:44:55;;;;;;;5.20;4.55;;;;;;;2.53;48.57;98225.22;7765723;32;36998;-81
2024/01/15 16:49:11;;;;;;;7.95;4.87;;;;;;;2.76;47.50;98228.59;7775130;32;39546;-81
2024/01/15 16:53:28;;;;;;;11.95;5.47;;;;;;;2.65;48.23;98229.62;7778237;32;38592;-81
2024/01/15 16:57:44;;;;;;;8.52;5.20;;;;;;;2.51;48.91;98254.25;7776859;32;39153;-81
2024/01/15 17:02:00;;;;;;;8.68;5.35;;;;;;;2.36;49.34;98246.06;7785882;32;37775;-80
2024/01/15 17:06:16;;;;;;;9.32;5.20;;;;;;;2.25;50.17;98255.94;7792827;32;39492;-81
2024/01/15 17:10:33;;;;;;;10.20;6.07;;;;;;;2.66;50.41;98250.06;7792457;32;40843;-81
2024/01/15 17:14:49;;;;;;;9.40;5.53;;;;;;;2.34;50.60;98253.56;7792447;32;38516;-79
2024/01/15 17:19:07;;;;;;;8.65;5.60;;;;;;;2.21;51.01;98255.63;7792199;32;38001;-81
2024/01/15 17:23:23;;;;;;;8.45;5.35;;;;;;;2.39;50.25;98250.94;7792576;32;39336;-82
2024/01/15 17:27:40;;;;;;;11.52;5.25;;;;;;;2.34;49.81;98251.69;7792188;32;40772;-81
2024/01/15 17:31:56;;;;;;;8.15;5.00;;;;;;;2.75;49.03;98253.91;7792318;32;38454;-81
2024/01/15 17:36:13;;;;;;;8.20;5.53;;;;;;;2.33;49.91;98254.63;7792360;32;36969;-81
2024/01/15 17:40:29;;;;;;;7.03;4.82;;;;;;;2.03;50.50;98246.03;7791936;32;40156;-81
2024/01/15 17:44:45;;;;;;;9.88;5.28;;;;;;;2.10;49.74;98235.06;7792579;32;40977;-81
2024/01/15 17:49:02;;;;;;;6.35;4.90;;;;;;;2.46;49.27;98234.59;7791972;32;37936;-81
2024/01/15 17:53:19;;;;;;;8.30;4.97;;;;;;;2.37;49.66;98242.31;7778259;32;37108;-81
2024/01/15 17:57:36;;;;;;;11.50;5.90;;;;;;;2.14;50.68;98251.50;7791877;32;39959;-81
2024/01/15 18:01:54;;;;;;;10.80;6.35;;;;;;;2.42;50.00;98245.06;7767944;32;39940;-81
2024/01/15 18:06:11;;;;;;;9.93;5.47;;;;;;;2.33;50.03;98273.47;7764782;32;37519;-80
2024/01/15 18:10:28;;;;;;;9.68;5.22;;;;;;;1.69;52.48;98281.16;7764591;32;37122;-81
2024/01/15 18:14:44;;;;;;;6.82;4.80;;;;;;;1.80;53.00;98282.06;7764758;32;39044;-80
2024/01/15 18:19:00;;;;;;;7.28;4.53;;;;;;;2.09;52.00;98257.66;7764472;32;39928;-80
2024/01/15 18:23:17;;;;;;;10.57;6.00;;;;;;;2.28;51.05;98241.13;7764342;32;38720;-81
2024/01/15 18:27:34;;;;;;;10.80;6.03;;;;;;;1.94;51.59;98211.81;7764340;32;37110;-81
2024/01/15 18:31:50;;;;;;;10.85;5.70;;;;;;;2.77;49.33;98232.94;7765320;32;39509;-80
2024/01/15 18:36:07;;;;;;;9.95;6.85;;;;;;;2.37;50.32;98267.31;7763765;32;40568;-81
2024/01/15 18:40:23;;;;;;;9.75;5.45;;;;;;;1.94;51.38;98262.87;7763801;32;37818;-80
2024/01/15 18:44:40;;;;;;;9.50;5.82;;;;;;;2.16;51.18;98258.25;7763809;32;37886;-80
2024/01/15 18:48:57;;;;;;;9.77;6.03;;;;;;;1.60;52.71;98261.16;7763251;32;40218;-81
2024/01/15 18:53:13;;;;;;;7.37;5.37;;;;;;;2.52;50.22;98255.91;7764351;32;40565;-79
2024/01/15 18:57:29;;;;;;;9.82;5.80;;;;;;;1.88;51.84;98278.94;7763903;32;37756;-79
2024/01/15 19:01:46;;;;;;;9.88;5.65;;;;;;;2.20;52.01;98286.25;7764145;32;37166;-79
2024/01/15 19:06:04;;;;;;;9.13;5.55;;;;;;;2.36;51.31;98272.97;7763679;32;39373;-78
2024/01/15 19:10:20;;;;;;;8.45;5.95;;;;;;;2.42;51.25;98275.44;7785780;32;41130;-79
2024/01/15 19:14:36;;;;;;;9.55;5.55;;;;;;;1.91;52.67;98298.31;7791090;32;37497;-78
2024/01/15 19:18:53;;;;;;;8.73;5.90;;;;;;;2.03;52.49;98288.22;7791164;32;37780;-79
2024/01/15 19:23:13;;;;;;;8.35;5.30;;;;;;;1.96;53.04;98290.31;7776988;32;39036;-78
2024/01/15 19:27:46;;;;;;;13.20;5.07;;;;;;;1.86;52.62;98307.97;7773586;32;39515;-78
2024/01/15 19:32:11;;;;;;;10.65;5.80;;;;;;;1.62;53.11;98296.66;7775580;32;37832;-77
2024/01/15 19:36:31;;;;;;;4.62;4.05;;;;;;;1.39;53.79;98291.50;7776399;32;37836;-78
2024/01/15 19:40:47;;;;;;;10.50;6.75;;;;;;;2.01;52.60;98288.47;7774689;32;39350;-78
2024/01/15 19:45:04;;;;;;;11.38;6.12;;;;;;;2.15;52.40;98280.81;7776510;32;40758;-78
2024/01/15 19:49:20;;;;;;;12.27;6.75;;;;;;;2.38;51.81;98303.09;7775391;32;37545;-80
2024/01/15 19:53:37;;;;;;;9.65;5.82;;;;;;;1.58;53.57;98311.63;7774385;32;35907;-79
2024/01/15 19:57:54;;;;;;;10.63;6.75;;;;;;;2.02;52.59;98335.00;7776223;32;39914;-79
2024/01/15 20:02:10;;;;;;;8.15;5.43;;;;;;;2.10;53.33;98307.66;7774298;32;40562;-78